createdAt,value
2018-11-04T00:03:44.079Z,47.5
2018-11-04T00:08:41.851Z,47.5
2018-11-04T00:13:39.647Z,47.5
2018-11-04T00:18:37.582Z,47.5
2018-11-04T00:23:35.642Z,47.5
2018-11-04T00:28:33.178Z,47.5
2018-11-04T00:33:31.239Z,47.5
2018-11-04T00:38:28.812Z,47.5
2018-11-04T00:43:27.057Z,47.5
2018-11-04T00:48:24.222Z,47.5
2018-11-04T00:53:22.014Z,47.5
2018-11-04T00:58:19.743Z,47.5
2018-11-04T01:03:17.668Z,47.5
2018-11-04T01:08:15.574Z,47.5
2018-11-04T01:13:13.394Z,47.5
2018-11-04T01:18:11.243Z,47.5
2018-11-04T01:23:09.188Z,47.5
2018-11-04T01:28:07.312Z,47.5
2018-11-04T01:33:05.682Z,47.5
2018-11-04T01:38:04.039Z,47.5
2018-11-04T01:43:01.740Z,47.5
2018-11-04T01:48:00.014Z,47.5
2018-11-04T01:52:58.145Z,47.5
2018-11-04T01:57:56.406Z,47.5
2018-11-04T02:02:54.702Z,47.5
2018-11-04T02:07:52.498Z,47.5
2018-11-04T02:12:50.933Z,47.5
2018-11-04T02:17:49.226Z,47.5
2018-11-04T02:22:47.417Z,47.5
2018-11-04T02:27:45.293Z,47.5
2018-11-04T02:32:43.430Z,47.5
2018-11-04T02:37:41.649Z,47.5
2018-11-04T02:42:39.342Z,47.5
2018-11-04T02:47:37.656Z,47.5
2018-11-04T02:52:35.410Z,47.5
2018-11-04T02:57:33.219Z,47.4
2018-11-04T03:02:31.016Z,47.5
2018-11-04T03:07:29.449Z,47.4
2018-11-04T03:12:27.813Z,47.4
2018-11-04T03:17:25.985Z,47.4
2018-11-04T03:22:24.102Z,47.4
2018-11-04T03:27:21.902Z,47.4
2018-11-04T03:32:19.625Z,47.4
2018-11-04T03:37:17.792Z,47.4
2018-11-04T03:42:15.977Z,47.4
2018-11-04T03:47:14.252Z,47.4
2018-11-04T03:52:12.472Z,47.3
2018-11-04T03:57:10.570Z,47.4
2018-11-04T04:02:08.328Z,47.3
2018-11-04T04:07:06.431Z,47.3
2018-11-04T04:12:04.763Z,47.3
2018-11-04T04:17:02.632Z,47.3
2018-11-04T04:22:00.448Z,47.3
2018-11-04T04:26:58.369Z,47.3
2018-11-04T04:31:56.278Z,47.3
2018-11-04T04:36:54.437Z,47.3
2018-11-04T04:41:52.273Z,47.3
2018-11-04T04:46:49.691Z,47.3
2018-11-04T04:51:47.859Z,47.3
2018-11-04T04:56:45.883Z,47.3
2018-11-04T05:01:44.039Z,47.3
2018-11-04T05:06:42.247Z,47.3
2018-11-04T05:11:40.436Z,47.3
2018-11-04T05:16:38.703Z,47.3
2018-11-04T05:21:36.596Z,47.3
2018-11-04T05:26:34.669Z,47.3
2018-11-04T05:31:32.314Z,47.3
2018-11-04T05:36:30.028Z,47.3
2018-11-04T05:41:28.164Z,47.3
2018-11-04T05:46:25.903Z,47.3
2018-11-04T05:51:23.977Z,47.3
2018-11-04T05:56:22.291Z,47.3
2018-11-04T06:01:20.564Z,47.3
2018-11-04T06:06:18.419Z,47.2
2018-11-04T06:11:16.523Z,47.2
2018-11-04T06:16:14.634Z,47.3
2018-11-04T06:21:12.769Z,47.3
2018-11-04T06:26:10.605Z,47.3
2018-11-04T06:31:08.801Z,47.2
2018-11-04T06:36:07.230Z,47.3
2018-11-04T06:41:05.684Z,47.3
2018-11-04T06:46:04.003Z,47.3
2018-11-04T06:51:02.311Z,47.4
2018-11-04T06:56:00.566Z,47.4
2018-11-04T07:00:58.905Z,47.4
2018-11-04T07:05:57.131Z,47.4
2018-11-04T07:10:54.876Z,47.4
2018-11-04T07:15:53.047Z,47.4
2018-11-04T07:20:51.437Z,47.4
2018-11-04T07:25:49.629Z,47.4
2018-11-04T07:30:47.944Z,47.4
2018-11-04T07:35:46.420Z,47.4
2018-11-04T07:40:44.332Z,47.4
2018-11-04T07:45:42.549Z,47.4
2018-11-04T07:50:40.409Z,47.5
2018-11-04T07:55:38.679Z,47.5
2018-11-04T08:00:36.768Z,47.5
2018-11-04T08:05:35.165Z,47.5
2018-11-04T08:10:33.569Z,47.5
2018-11-04T08:15:31.986Z,47.5
2018-11-04T08:20:30.433Z,47.6
2018-11-04T08:25:28.717Z,47.5
2018-11-04T08:30:27.057Z,47.6
2018-11-04T08:35:24.952Z,47.6
2018-11-04T08:40:24.464Z,47.7
2018-11-04T08:45:23.037Z,47.8
2018-11-04T08:50:20.914Z,47.8
2018-11-04T08:55:19.507Z,47.8
2018-11-04T09:00:17.662Z,47.9
2018-11-04T09:05:15.757Z,47.9
2018-11-04T09:10:14.023Z,47.9
2018-11-04T09:15:12.112Z,47.9
2018-11-04T09:20:10.638Z,48
2018-11-04T09:25:09.058Z,48
2018-11-04T09:30:07.446Z,48.1
2018-11-04T09:35:06.397Z,48.1
2018-11-04T09:40:04.742Z,48.2
2018-11-04T09:45:03.174Z,48.2
2018-11-04T09:50:01.529Z,48.2
2018-11-04T09:54:59.635Z,48.2
2018-11-04T09:59:57.913Z,48.2
2018-11-04T10:04:56.139Z,48.3
2018-11-04T10:09:54.476Z,48.3
2018-11-04T10:14:52.498Z,48.3
2018-11-04T10:19:51.559Z,48.3
2018-11-04T10:24:49.504Z,48.4
2018-11-04T10:29:47.398Z,48.4
2018-11-04T10:34:45.712Z,48.4
2018-11-04T10:39:44.413Z,48.4
2018-11-04T10:44:42.895Z,48.5
2018-11-04T10:49:41.196Z,48.5
2018-11-04T10:54:38.711Z,48.6
2018-11-04T10:59:37.172Z,48.6
2018-11-04T11:04:35.685Z,48.6
2018-11-04T11:09:34.304Z,48.7
2018-11-04T11:14:32.528Z,48.7
2018-11-04T11:19:30.982Z,48.7
2018-11-04T11:24:28.868Z,48.7
2018-11-04T11:29:26.777Z,48.7
2018-11-04T11:34:24.694Z,48.7
2018-11-04T11:39:22.703Z,48.7
2018-11-04T11:44:20.832Z,48.7
2018-11-04T11:49:18.990Z,48.8
2018-11-04T11:54:17.065Z,48.7
2018-11-04T11:59:15.064Z,48.7
2018-11-04T12:04:12.851Z,48.7
2018-11-04T12:09:11.328Z,48.7
2018-11-04T12:14:09.496Z,48.7
2018-11-04T12:19:07.476Z,48.7
2018-11-04T12:24:05.748Z,48.7
2018-11-04T12:29:03.748Z,48.7
2018-11-04T12:34:02.393Z,48.7
2018-11-04T12:39:00.759Z,48.7
2018-11-04T12:43:58.886Z,48.7
2018-11-04T12:48:56.812Z,48.7
2018-11-04T12:53:55.209Z,48.7
2018-11-04T12:58:53.155Z,48.7
2018-11-04T13:03:51.587Z,48.7
2018-11-04T13:08:49.869Z,48.7
2018-11-04T13:13:48.264Z,48.7
2018-11-04T13:18:46.679Z,48.7
2018-11-04T13:23:45.299Z,48.7
2018-11-04T13:28:42.877Z,48.7
2018-11-04T13:33:41.072Z,48.7
2018-11-04T13:38:39.644Z,48.6
2018-11-04T13:43:38.071Z,48.6
2018-11-04T13:48:36.511Z,48.6
2018-11-04T13:53:34.801Z,48.6
2018-11-04T13:58:33.073Z,48.6
2018-11-04T14:03:31.425Z,48.5
2018-11-04T14:08:29.897Z,48.6
2018-11-04T14:13:28.381Z,48.5
2018-11-04T14:18:26.476Z,48.5
2018-11-04T14:23:24.494Z,48.5
2018-11-04T14:28:22.819Z,48.5
2018-11-04T14:33:21.411Z,48.4
2018-11-04T14:38:19.358Z,48.4
2018-11-04T14:43:17.343Z,48.3
2018-11-04T14:48:15.383Z,48.3
2018-11-04T14:53:13.289Z,48.3
2018-11-04T14:58:11.683Z,48.3
2018-11-04T15:03:09.452Z,48.2
2018-11-04T15:08:07.797Z,48.2
2018-11-04T15:13:05.827Z,48.2
2018-11-04T15:18:03.539Z,48.1
2018-11-04T15:23:01.925Z,48.1
2018-11-04T15:27:59.611Z,48.1
2018-11-04T15:32:57.115Z,48
2018-11-04T15:37:55.560Z,48
2018-11-04T15:42:53.853Z,48
2018-11-04T15:47:51.553Z,48.1
2018-11-04T15:52:49.592Z,48
2018-11-04T15:57:47.584Z,48
2018-11-04T16:02:46.216Z,47.9
2018-11-04T16:07:44.744Z,47.9
2018-11-04T16:12:43.117Z,47.8
2018-11-04T16:17:40.828Z,47.8
2018-11-04T16:22:39.225Z,47.8
2018-11-04T16:27:37.547Z,47.7
2018-11-04T16:32:35.299Z,47.7
2018-11-04T16:37:34.064Z,47.7
2018-11-04T16:42:31.818Z,47.6
2018-11-04T16:47:29.891Z,47.6
2018-11-04T16:52:28.210Z,47.6
2018-11-04T16:57:26.251Z,47.6
2018-11-04T17:02:24.527Z,47.7
2018-11-04T17:07:22.843Z,47.7
2018-11-04T17:12:20.802Z,47.6
2018-11-04T17:17:18.825Z,47.6
2018-11-04T17:22:16.710Z,47.6
2018-11-04T17:27:15.113Z,47.6
2018-11-04T17:32:13.356Z,47.6
2018-11-04T17:37:11.236Z,47.5
2018-11-04T17:42:09.202Z,47.5
2018-11-04T17:47:06.646Z,47.4
2018-11-04T17:52:04.629Z,47.4
2018-11-04T17:57:02.438Z,47.4
2018-11-04T18:02:00.363Z,47.3
2018-11-04T18:06:58.450Z,47.3
2018-11-04T18:11:56.809Z,47.3
2018-11-04T18:16:54.939Z,47.3
2018-11-04T18:21:52.919Z,47.2
2018-11-04T18:26:51.179Z,47.2
2018-11-04T18:31:49.801Z,47.2
2018-11-04T18:36:47.935Z,47.2
2018-11-04T18:41:45.995Z,47.3
2018-11-04T18:46:43.939Z,47.3
2018-11-04T18:51:42.365Z,47.3
2018-11-04T18:56:40.246Z,47.2
2018-11-04T19:01:38.391Z,47.3
2018-11-04T19:06:36.200Z,47.3
2018-11-04T19:11:34.465Z,47.3
2018-11-04T19:16:32.264Z,47.3
2018-11-04T19:21:30.281Z,47.3
2018-11-04T19:26:27.475Z,47.3
2018-11-04T19:31:26.040Z,47.3
2018-11-04T19:36:23.974Z,47.3
2018-11-04T19:41:22.462Z,47.3
2018-11-04T19:46:20.304Z,47.3
2018-11-04T19:51:18.789Z,47.3
2018-11-04T19:56:16.356Z,47.3
2018-11-04T20:01:14.391Z,47.3
2018-11-04T20:06:12.819Z,47.3
2018-11-04T20:11:11.274Z,47.3
2018-11-04T20:16:09.422Z,47.3
2018-11-04T20:21:07.154Z,47.2
2018-11-04T20:26:05.458Z,47.3
2018-11-04T20:31:03.459Z,47.3
2018-11-04T20:36:01.847Z,47.2
2018-11-04T20:41:00.036Z,47.2
2018-11-04T20:45:58.424Z,47.3
2018-11-04T20:50:56.670Z,47.3
2018-11-04T20:55:54.914Z,47.3
2018-11-04T21:00:53.250Z,47.3
2018-11-04T21:05:51.683Z,47.3
2018-11-04T21:10:50.052Z,47.3
2018-11-04T21:15:47.761Z,47.3
2018-11-04T21:20:45.805Z,47.3
2018-11-04T21:25:44.014Z,47.3
2018-11-04T21:30:42.423Z,47.3
2018-11-04T21:35:40.255Z,47.3
2018-11-04T21:40:38.597Z,47.2
2018-11-04T21:45:36.926Z,47.2
2018-11-04T21:50:35.301Z,47.3
2018-11-04T21:55:34.088Z,47.2
2018-11-04T22:00:32.101Z,47.2
2018-11-04T22:05:29.669Z,47.3
2018-11-04T22:10:27.791Z,47.2
2018-11-04T22:15:26.133Z,47.3
2018-11-04T22:20:24.388Z,47.3
2018-11-04T22:25:22.253Z,47.3
2018-11-04T22:30:21.156Z,47.3
2018-11-04T22:35:18.791Z,47.3
2018-11-04T22:40:17.025Z,47.3
2018-11-04T22:45:15.297Z,47.3
2018-11-04T22:50:13.101Z,47.3
2018-11-04T22:55:11.477Z,47.3
2018-11-04T23:00:09.750Z,47.3
2018-11-04T23:05:07.666Z,47.3
2018-11-04T23:10:05.940Z,47.3
2018-11-04T23:15:03.637Z,47.3
2018-11-04T23:20:01.806Z,47.3
2018-11-04T23:25:00.175Z,47.3
2018-11-04T23:29:58.297Z,47.3
2018-11-04T23:34:56.455Z,47.3
2018-11-04T23:39:54.262Z,47.3
2018-11-04T23:44:52.713Z,47.3
2018-11-04T23:49:51.998Z,47.2
2018-11-04T23:54:50.794Z,47.3
2018-11-04T23:59:48.758Z,47.2
